Warning: Javascript must be enabled to use all the features on this page!


Page Loading - Please Wait...

Click to hideNews Bulletins

USGS 04189260 Blanchard River at Ottawa OH

PROVISIONAL DATA SUBJECT TO REVISION

Click to hidestation-specific text
Station operated in cooperation with the Village of Ottawa and the National Streamflow Information Program.
 04189260 Blanchard River at Ottawa, OH
 LOCATION.--Lat 41°01'01", long 84°02'49", Putnam County, OH, Hydrologic 
     Unit 04100008, on right bank at downstream side of Oak Street, 200 ft. upstream 
     of B&O railroad bridge, 800 ft. upstream of SR65 bridge, 1,200 ft. southeast of 
     intersection of SR65 and US RT224 in the village of Ottawa, OH.
 DRAINAGE AREA.--628 mi2.
 PERIOD OF RECORD.--October 2009 to current water year.
Want to learn more about areas near this gage that are inundated during flooding? See the USGS flood-inundation mapper.

Boating safety tips
Available Parameters Available Period
All 2 Available Parameters for this site
  
00060 Discharge 2009-10-01  2017-01-20
00065 Gage height 2016-09-22  2017-01-20

Graph
Graph w/ stats
Graph w/o stats
Graph w/ (up to 3) parms
Table
Tab-separated
Days  (7)
 

  -- or --
Begin date
 

End date
 

Summary of all available data for this site
Instantaneous-data availability statement
Gage height, feet
TIMEJan 13Jan 14Jan 15Jan 16Jan 17Jan 18Jan 19Jan 20
00:00 EST15.26P  15.25P  15.21P  13.85P  8.55P  10.97P  14.39P  12.27P  
00:30 EST15.44P  15.21P  15.09P  13.70P  8.52P  11.12P  14.39P  12.18P  
01:00 EST15.62P  15.16P  15.03P  13.54P  8.48P  11.29P  14.39P  12.08P  
01:30 EST15.79P  15.13P  15.02P  13.38P  8.45P  11.43P  14.39P  11.99P  
02:00 EST15.90P  15.11P  14.94P  13.22P  8.43P  11.58P  14.39P  11.89P  
02:30 EST15.96P  15.09P  14.86P  13.07P  8.40P  11.70P  14.38P  11.81P  
03:00 EST16.06P  15.09P  14.80P  12.91P  8.38P  11.83P  14.37P  11.72P  
03:30 EST16.05P  15.10P  14.75P  12.76P  8.36P  11.97P  14.37P  11.64P  
04:00 EST16.01P  15.11P  14.74P  12.59P  8.34P  12.09P  14.36P  11.58P  
04:30 EST16.02P  15.12P  14.75P  12.43P  8.32P  12.23P  14.35P  11.52P  
05:00 EST16.06P  15.11P  14.70P  12.29P  8.31P  12.36P  14.34P  11.47P  
05:30 EST15.98P  15.12P  14.65P  12.13P  8.28P  12.47P  14.33P  11.44P  
06:00 EST16.01P  15.13P  14.61P  11.97P  8.27P  12.58P  14.31P  11.41P  
06:30 EST15.93P  15.15P  14.58P  11.83P  8.27P  12.70P  14.30P  11.41P  
07:00 EST15.93P  15.16P  14.55P  11.68P  8.26P  12.80P  14.28P  11.43P  
07:30 EST15.90P  15.18P  14.51P  11.54P  8.27P  12.91P  14.28P  11.45P  
08:00 EST15.79P  15.19P  14.48P  11.40P  8.29P  13.01P  14.25P  11.49P  
08:30 EST15.81P  15.20P  14.46P  11.27P  8.30P  13.11P  14.23P  11.54P  
09:00 EST15.74P  15.22P  14.47P  11.13P  8.32P  13.20P  14.21P  11.61P  
09:30 EST15.75P  15.26P  14.50P  11.00P  8.34P  13.29P  14.18P  11.69P  
10:00 EST15.83P  15.32P  14.57P  10.87P  8.37P  13.37P  14.16P  11.79P  
10:30 EST16.03P  15.39P  14.67P  10.75P  8.40P  13.46P  14.14P  11.89P  
11:00 EST16.23P  15.46P  14.68P  10.63P  8.44P  13.52P  14.10P  12.00P  
11:30 EST16.54P  15.54P  14.82P  10.51P  8.48P  13.59P  14.07P  12.12P  
12:00 EST16.98P  15.56P  14.86P  10.40P  8.52P  13.66P  14.03P  12.25P  
12:30 EST17.30P  15.71P  15.05P  10.28P  8.57P  13.73P  14.00P  12.37P  
13:00 EST17.48P  15.81P  15.10P  10.17P  8.60P  13.79P  13.95P   
13:30 EST17.57P  15.99P  15.31P  10.08P  8.66P  13.85P  13.90P   
14:00 EST17.64P  16.10P  15.60P  9.97P  8.70P  13.91P  13.86P   
14:30 EST17.67P  16.15P  15.92P  9.87P  8.76P  13.96P  13.80P   
15:00 EST17.68P  16.14P  15.95P  9.78P  8.82P  14.01P  13.74P   
15:30 EST17.62P  16.16P  15.88P  9.69P  8.88P  14.05P  13.68P   
16:00 EST17.55P  16.16P  15.82P  9.60P  8.94P  14.09P  13.62P   
16:30 EST17.32P  16.17P  15.74P  9.51P  9.00P  14.13P  13.55P   
17:00 EST17.17P  16.18P  15.65P  9.43P  9.07P  14.15P  13.48P   
17:30 EST16.93P  16.14P  15.56P  9.35P  9.13P  14.18P  13.41P   
18:00 EST16.76P  16.10P  15.46P  9.28P  9.20P  14.22P  13.33P   
18:30 EST16.62P  16.04P  15.34P  9.20P  9.29P  14.25P  13.25P   
19:00 EST16.38P  15.99P  15.23P  9.13P  9.36P  14.27P  13.17P   
19:30 EST16.20P  15.94P  15.11P  9.06P  9.46P  14.30P  13.09P   
20:00 EST16.12P  15.89P  14.99P  8.99P  9.57P  14.31P  13.00P   
20:30 EST15.95P  15.84P  14.87P  8.94P  9.70P  14.33P  12.91P   
21:00 EST15.78P  15.76P  14.73P  8.87P  9.87P  14.34P  12.82P   
21:30 EST15.63P  15.70P  14.59P  8.82P  10.04P  14.35P  12.73P   
22:00 EST15.54P  15.63P  14.45P  8.76P  10.23P  14.36P  12.65P   
22:30 EST15.46P  15.48P  14.30P  8.70P  10.43P  14.37P  12.55P   
23:00 EST15.37P  15.38P  14.16P  8.66P  10.61P  14.38P  12.46P   
23:30 EST15.30P  15.35P  14.00P  8.60P  10.80P  14.39P  12.36P   
COUNT4848484848484826
MAX17.6816.1815.9513.8510.8014.3914.3912.37
MIN15.2615.0914.008.608.2610.9712.3611.41

Explanation
  P  Provisional data subject to revision.